Time;durP1;ratioP1;P1;durP2;ratioP2;P2;SDS_P1;SDS_P2;PMS_P1;PMS_P2;Temp;Humidity;BMP_temperature;BMP_pressure;BME280_temperature;BME280_humidity;BME280_pressure;Samples;Min_cycle;Max_cycle;Signal;HPM_P1;HPM_P2
2020/10/07 00:01:00;;;;;;;0.5;0.4;;;;;;;;;;;;;
2020/10/07 00:03:24;;;;;;;0.6;0.4;;;;;;;;;;;;;
2020/10/07 00:05:50;;;;;;;0.7;0.5;;;;;;;;;;;;;
2020/10/07 00:08:16;;;;;;;0.6;0.4;;;;;;;;;;;;;
2020/10/07 00:10:41;;;;;;;0.5;0.4;;;;;;;;;;;;;
2020/10/07 00:13:07;;;;;;;0.6;0.3;;;;;;;;;;;;;
2020/10/07 00:15:32;;;;;;;0.3;0.2;;;;;;;;;;;;;
2020/10/07 00:17:58;;;;;;;2;0.4;;;;;;;;;;;;;
2020/10/07 00:20:23;;;;;;;0.8;0.6;;;;;;;;;;;;;
2020/10/07 00:22:50;;;;;;;0.5;0.4;;;;;;;;;;;;;
2020/10/07 00:25:15;;;;;;;0.2;0.2;;;;;;;;;;;;;
2020/10/07 00:27:40;;;;;;;0.2;0.2;;;;;;;;;;;;;
2020/10/07 00:30:05;;;;;;;2;0.3;;;;;;;;;;;;;
2020/10/07 00:32:30;;;;;;;0.9;0.4;;;;;;;;;;;;;
2020/10/07 00:34:55;;;;;;;0.3;0.2;;;;;;;;;;;;;
2020/10/07 00:37:20;;;;;;;0.9;0.5;;;;;;;;;;;;;
2020/10/07 00:39:45;;;;;;;1;0.4;;;;;;;;;;;;;
2020/10/07 00:42:11;;;;;;;0.3;0.3;;;;;;;;;;;;;
2020/10/07 00:44:36;;;;;;;0.7;0.3;;;;;;;;;;;;;
2020/10/07 00:47:01;;;;;;;0.4;0.3;;;;;;;;;;;;;
2020/10/07 00:49:26;;;;;;;0.9;0.4;;;;;;;;;;;;;
2020/10/07 00:51:51;;;;;;;0.5;0.5;;;;;;;;;;;;;
2020/10/07 00:54:17;;;;;;;1.3;0.3;;;;;;;;;;;;;
2020/10/07 00:56:42;;;;;;;0.5;0.3;;;;;;;;;;;;;
2020/10/07 00:59:07;;;;;;;0.3;0.2;;;;;;;;;;;;;
2020/10/07 01:01:34;;;;;;;0.5;0.5;;;;;;;;;;;;;
2020/10/07 01:03:58;;;;;;;0.8;0.7;;;;;;;;;;;;;
2020/10/07 01:06:24;;;;;;;0.9;0.8;;;;;;;;;;;;;
2020/10/07 01:08:49;;;;;;;1;0.6;;;;;;;;;;;;;
2020/10/07 01:11:14;;;;;;;0.9;0.6;;;;;;;;;;;;;
2020/10/07 01:13:39;;;;;;;2.5;0.9;;;;;;;;;;;;;
2020/10/07 01:16:04;;;;;;;0.6;0.5;;;;;;;;;;;;;
2020/10/07 01:18:29;;;;;;;1.7;0.7;;;;;;;;;;;;;
2020/10/07 01:20:55;;;;;;;0.7;0.5;;;;;;;;;;;;;
2020/10/07 01:23:20;;;;;;;0.2;0.2;;;;;;;;;;;;;
2020/10/07 01:25:45;;;;;;;0.4;0.3;;;;;;;;;;;;;
2020/10/07 01:28:10;;;;;;;0.6;0.4;;;;;;;;;;;;;
2020/10/07 01:30:36;;;;;;;0.4;0.4;;;;;;;;;;;;;
2020/10/07 01:33:02;;;;;;;0.4;0.3;;;;;;;;;;;;;
2020/10/07 01:35:27;;;;;;;4.9;0.4;;;;;;;;;;;;;
2020/10/07 01:37:53;;;;;;;0.2;0.2;;;;;;;;;;;;;
2020/10/07 01:40:17;;;;;;;1;0.6;;;;;;;;;;;;;
2020/10/07 01:42:42;;;;;;;1.2;0.5;;;;;;;;;;;;;
2020/10/07 01:45:08;;;;;;;0.6;0.5;;;;;;;;;;;;;
2020/10/07 01:47:34;;;;;;;0.5;0.3;;;;;;;;;;;;;
2020/10/07 01:49:58;;;;;;;0.7;0.5;;;;;;;;;;;;;
2020/10/07 01:52:23;;;;;;;1.4;0.3;;;;;;;;;;;;;
2020/10/07 01:54:51;;;;;;;0.8;0.3;;;;;;;;;;;;;
2020/10/07 01:57:18;;;;;;;0.3;0.3;;;;;;;;;;;;;
2020/10/07 01:59:41;;;;;;;0.3;0.2;;;;;;;;;;;;;
2020/10/07 02:02:06;;;;;;;0.9;0.4;;;;;;;;;;;;;
2020/10/07 02:04:31;;;;;;;0.1;0.1;;;;;;;;;;;;;
2020/10/07 02:06:57;;;;;;;0.6;0.3;;;;;;;;;;;;;
2020/10/07 02:09:32;;;;;;;0.3;0.2;;;;;;;;;;;;;
2020/10/07 02:11:56;;;;;;;0.5;0.4;;;;;;;;;;;;;
2020/10/07 02:14:12;;;;;;;0.2;0.2;;;;;;;;;;;;;
2020/10/07 02:16:37;;;;;;;1;0.5;;;;;;;;;;;;;
2020/10/07 02:19:02;;;;;;;0.3;0.2;;;;;;;;;;;;;
2020/10/07 02:21:27;;;;;;;3.4;0.3;;;;;;;;;;;;;
2020/10/07 02:23:52;;;;;;;0.2;0.2;;;;;;;;;;;;;
2020/10/07 02:26:17;;;;;;;0.3;0.3;;;;;;;;;;;;;
2020/10/07 02:28:43;;;;;;;0.3;0.3;;;;;;;;;;;;;
2020/10/07 02:31:08;;;;;;;0.3;0.3;;;;;;;;;;;;;
2020/10/07 02:33:33;;;;;;;1.8;0.4;;;;;;;;;;;;;
2020/10/07 02:35:58;;;;;;;0.5;0.3;;;;;;;;;;;;;
2020/10/07 02:38:23;;;;;;;0.3;0.3;;;;;;;;;;;;;
2020/10/07 02:40:48;;;;;;;0.2;0.2;;;;;;;;;;;;;
2020/10/07 02:43:13;;;;;;;0.2;0.2;;;;;;;;;;;;;
2020/10/07 02:45:39;;;;;;;0.9;0.4;;;;;;;;;;;;;
2020/10/07 02:48:04;;;;;;;0.6;0.3;;;;;;;;;;;;;
2020/10/07 02:50:29;;;;;;;0.3;0.2;;;;;;;;;;;;;
2020/10/07 02:53:04;;;;;;;0.9;0.2;;;;;;;;;;;;;
2020/10/07 02:55:27;;;;;;;2.4;0.4;;;;;;;;;;;;;
2020/10/07 02:58:03;;;;;;;0.2;0.2;;;;;;;;;;;;;
2020/10/07 03:00:12;;;;;;;0.3;0.3;;;;;;;;;;;;;
2020/10/07 03:02:48;;;;;;;1;0.4;;;;;;;;;;;;;
2020/10/07 03:05:13;;;;;;;1.2;0.2;;;;;;;;;;;;;
2020/10/07 03:07:39;;;;;;;1;0.4;;;;;;;;;;;;;
2020/10/07 03:12:29;;;;;;;0.2;0.2;;;;;;;;;;;;;
2020/10/07 03:14:54;;;;;;;0.6;0.4;;;;;;;;;;;;;
2020/10/07 03:17:19;;;;;;;0.1;0.1;;;;;;;;;;;;;
2020/10/07 03:19:45;;;;;;;0.2;0.2;;;;;;;;;;;;;
2020/10/07 03:22:10;;;;;;;0.2;0.2;;;;;;;;;;;;;
2020/10/07 03:24:35;;;;;;;0.2;0.1;;;;;;;;;;;;;
2020/10/07 03:27:00;;;;;;;0.8;0.2;;;;;;;;;;;;;
2020/10/07 03:29:25;;;;;;;0.2;0.2;;;;;;;;;;;;;
2020/10/07 03:31:53;;;;;;;0.2;0.2;;;;;;;;;;;;;
2020/10/07 03:34:17;;;;;;;0.2;0.1;;;;;;;;;;;;;
2020/10/07 03:36:43;;;;;;;0.3;0.2;;;;;;;;;;;;;
2020/10/07 03:39:08;;;;;;;0.4;0.2;;;;;;;;;;;;;
2020/10/07 03:41:33;;;;;;;0.4;0.3;;;;;;;;;;;;;
2020/10/07 03:43:59;;;;;;;0.3;0.3;;;;;;;;;;;;;
2020/10/07 03:46:25;;;;;;;0.5;0.3;;;;;;;;;;;;;
2020/10/07 03:48:51;;;;;;;0.1;0.1;;;;;;;;;;;;;
2020/10/07 03:51:16;;;;;;;0.6;0.3;;;;;;;;;;;;;
2020/10/07 03:53:42;;;;;;;0.9;0.3;;;;;;;;;;;;;
2020/10/07 03:56:07;;;;;;;0.2;0.2;;;;;;;;;;;;;
2020/10/07 03:58:33;;;;;;;0.8;0.3;;;;;;;;;;;;;
2020/10/07 04:02:30;;;;;;;0.9;0.4;;;;;;;10.05;89.91504;932.6272;;;;
2020/10/07 04:04:55;;;;;;;0.1;0.1;;;;;;;9.88;90.66504;932.733;;;;
2020/10/07 04:07:22;;;;;;;0.9;0.5;;;;;;;9.96;90.57031;932.7508;;;;
2020/10/07 04:09:47;;;;;;;0.1;0.1;;;;;;;10.02;90.14844;932.8339;;;;
2020/10/07 04:12:14;;;;;;;0.8;0.5;;;;;;;10.01;90.64844;932.837;;;;
2020/10/07 04:14:39;;;;;;;0.7;0.5;;;;;;;10.11;89.68848;932.9328;;;;
2020/10/07 04:17:05;;;;;;;0.4;0.3;;;;;;;10.09;89.57031;932.9781;;;;
2020/10/07 04:19:30;;;;;;;1.1;0.4;;;;;;;9.98;89.16016;932.9663;;;;
2020/10/07 04:21:55;;;;;;;0.8;0.5;;;;;;;10.2;89.57031;933.0292;;;;
2020/10/07 04:24:20;;;;;;;1.6;0.8;;;;;;;10.34;89.30176;933.0803;;;;
2020/10/07 04:26:45;;;;;;;1;0.6;;;;;;;10.5;88.85547;933.2272;;;;
2020/10/07 04:29:11;;;;;;;2;0.9;;;;;;;10.57;88.43652;933.2726;;;;
2020/10/07 04:31:36;;;;;;;2.5;0.8;;;;;;;10.65;87.87012;933.2277;;;;
2020/10/07 04:34:01;;;;;;;2.2;1.2;;;;;;;10.6;87.25391;933.3189;;;;
2020/10/07 04:36:26;;;;;;;1.7;1.1;;;;;;;10.54;87.50586;933.2424;;;;
2020/10/07 04:38:52;;;;;;;1.1;0.9;;;;;;;10.57;87.77441;933.2137;;;;
2020/10/07 04:41:17;;;;;;;0.9;0.6;;;;;;;10.54;87.8125;933.2766;;;;
2020/10/07 04:43:42;;;;;;;2.2;1.2;;;;;;;10.26;89.13672;933.291;;;;
2020/10/07 04:46:08;;;;;;;0.7;0.6;;;;;;;10.36;88.96289;933.2657;;;;
2020/10/07 04:48:34;;;;;;;0.7;0.7;;;;;;;10.39;88.91309;933.3175;;;;
2020/10/07 04:50:59;;;;;;;2.4;1.4;;;;;;;10.42;88.76074;933.3369;;;;
2020/10/07 04:53:27;;;;;;;13.7;6;;;;;;;10.48;88.53223;933.376;;;;
2020/10/07 04:55:52;;;;;;;3.4;2.1;;;;;;;10.5;88.17188;933.3983;;;;
2020/10/07 04:58:18;;;;;;;4.4;2.6;;;;;;;10.45;88.18457;933.3823;;;;
2020/10/07 05:00:42;;;;;;;4.3;2.2;;;;;;;10.37;88.79492;933.4495;;;;
2020/10/07 05:03:09;;;;;;;2.3;1.4;;;;;;;10.36;88.89453;933.4305;;;;
2020/10/07 05:05:34;;;;;;;2.8;1;;;;;;;10.43;88.7627;933.4722;;;;
2020/10/07 05:08:00;;;;;;;1.7;0.8;;;;;;;10.36;88.86035;933.5331;;;;
2020/10/07 05:10:25;;;;;;;2.4;1;;;;;;;10.42;88.75879;933.5701;;;;
2020/10/07 05:12:53;;;;;;;2;1.1;;;;;;;10.49;88.91113;933.5352;;;;
2020/10/07 05:15:18;;;;;;;1.8;1;;;;;;;10.53;88.71484;933.6826;;;;
2020/10/07 05:17:47;;;;;;;10.2;1.6;;;;;;;10.38;88.74023;933.7703;;;;
2020/10/07 05:20:12;;;;;;;6;3.5;;;;;;;10.22;89.62109;933.8113;;;;
2020/10/07 05:22:37;;;;;;;4.7;2.1;;;;;;;10.3;89.59082;933.7883;;;;
2020/10/07 05:25:04;;;;;;;2.9;1.1;;;;;;;10.42;88.93164;933.8344;;;;
2020/10/07 05:27:29;;;;;;;1.1;1;;;;;;;10.29;89.09668;933.8711;;;;
2020/10/07 05:29:54;;;;;;;2.4;1.3;;;;;;;10.43;88.68262;933.906;;;;
2020/10/07 05:32:19;;;;;;;5.5;1.4;;;;;;;10.5;88.74316;933.9802;;;;
2020/10/07 05:34:46;;;;;;;2.5;0.9;;;;;;;10.46;88.31152;933.9578;;;;
2020/10/07 05:37:11;;;;;;;1.7;1;;;;;;;10.56;88.0459;933.9247;;;;
2020/10/07 05:39:37;;;;;;;1.9;1;;;;;;;10.59;87.91504;933.9756;;;;
2020/10/07 05:42:02;;;;;;;1.7;0.8;;;;;;;10.63;87.49023;933.8773;;;;
2020/10/07 05:44:28;;;;;;;4.3;0.9;;;;;;;10.57;87.46582;933.9908;;;;
2020/10/07 05:46:53;;;;;;;0.5;0.5;;;;;;;10.67;87.41699;934.0414;;;;
2020/10/07 05:49:19;;;;;;;0.8;0.6;;;;;;;10.69;87.22656;934.0916;;;;
2020/10/07 05:51:44;;;;;;;1;0.6;;;;;;;10.73;87.2002;934.1951;;;;
2020/10/07 05:54:12;;;;;;;6.8;3.6;;;;;;;10.77;87.56152;934.216;;;;
2020/10/07 05:56:37;;;;;;;13.4;4;;;;;;;10.75;87.40137;934.2231;;;;
2020/10/07 05:59:03;;;;;;;8.5;3.2;;;;;;;10.78;87.58789;934.2933;;;;
2020/10/07 06:01:27;;;;;;;3.1;2.1;;;;;;;10.67;87.67969;934.4984;;;;
2020/10/07 06:03:53;;;;;;;3.3;1.6;;;;;;;10.65;88.11035;934.4514;;;;
2020/10/07 06:06:17;;;;;;;2;1.1;;;;;;;10.53;87.9834;934.5176;;;;
2020/10/07 06:08:43;;;;;;;1.9;1.1;;;;;;;10.51;88.26367;934.6242;;;;
2020/10/07 06:11:10;;;;;;;0.8;0.6;;;;;;;10.51;87.69238;934.5208;;;;
2020/10/07 06:13:37;;;;;;;0.9;0.6;;;;;;;10.27;88.26172;934.4376;;;;
2020/10/07 06:16:06;;;;;;;2.1;0.7;;;;;;;10.17;89.05078;934.5336;;;;
2020/10/07 06:18:31;;;;;;;1.5;0.8;;;;;;;10.19;89.91016;934.5591;;;;
2020/10/07 06:20:57;;;;;;;1.9;1;;;;;;;10.45;89.40332;934.5237;;;;
2020/10/07 06:23:22;;;;;;;0.8;0.7;;;;;;;10.62;88.12598;934.5843;;;;
2020/10/07 06:25:47;;;;;;;4.2;1.1;;;;;;;10.47;88.83691;934.632;;;;
2020/10/07 06:28:12;;;;;;;2;1.2;;;;;;;10.7;88.05078;934.6968;;;;
2020/10/07 06:30:39;;;;;;;2.4;1.6;;;;;;;10.82;87.77832;934.7014;;;;
2020/10/07 06:33:06;;;;;;;1.4;1.2;;;;;;;10.85;87.50879;934.6282;;;;
2020/10/07 06:35:32;;;;;;;1;0.8;;;;;;;10.96;85.83008;934.7344;;;;
2020/10/07 06:37:57;;;;;;;2.2;1.3;;;;;;;11.01;85.86328;934.8276;;;;
2020/10/07 06:40:24;;;;;;;1.1;0.4;;;;;;;11.22;85.18457;934.8566;;;;
2020/10/07 06:42:47;;;;;;;1.3;0.8;;;;;;;11.36;84.69629;934.9331;;;;
2020/10/07 06:45:16;;;;;;;3.7;0.6;;;;;;;11.41;83.89453;934.9622;;;;
2020/10/07 06:47:37;;;;;;;0.6;0.5;;;;;;;11.43;83.04004;935.0133;;;;
2020/10/07 06:50:02;;;;;;;0.5;0.5;;;;;;;11.4;81.9248;935.1205;;;;
2020/10/07 06:52:28;;;;;;;0.4;0.4;;;;;;;11.32;82.58496;935.2104;;;;
2020/10/07 06:54:54;;;;;;;0.5;0.5;;;;;;;11.4;82.69141;935.2457;;;;
2020/10/07 06:57:22;;;;;;;0.8;0.5;;;;;;;11.41;84.62695;935.2699;;;;
2020/10/07 06:59:47;;;;;;;0.5;0.3;;;;;;;11.58;83.46973;935.3116;;;;
2020/10/07 07:02:19;;;;;;;0.8;0.5;;;;;;;11.72;82.93457;935.28;;;;
2020/10/07 07:04:40;;;;;;;1;0.7;;;;;;;11.82;82.0498;935.192;;;;
2020/10/07 07:07:06;;;;;;;0.6;0.3;;;;;;;11.84;81.90527;935.2224;;;;
2020/10/07 07:09:32;;;;;;;0.9;0.5;;;;;;;11.88;81.68359;935.192;;;;
2020/10/07 07:11:57;;;;;;;1.1;0.4;;;;;;;11.99;80.47754;935.1559;;;;
2020/10/07 07:14:22;;;;;;;0.7;0.5;;;;;;;11.94;79.42676;935.2286;;;;
2020/10/07 07:16:47;;;;;;;0.5;0.4;;;;;;;11.76;77.55078;935.1851;;;;
2020/10/07 07:19:13;;;;;;;0.3;0.3;;;;;;;11.73;78.72559;935.2823;;;;
2020/10/07 07:21:38;;;;;;;0.3;0.3;;;;;;;11.91;79.99316;935.2223;;;;
2020/10/07 07:24:05;;;;;;;0.9;0.3;;;;;;;12.02;79.24609;935.2664;;;;
2020/10/07 07:26:30;;;;;;;0.7;0.4;;;;;;;12.21;79.46387;935.298;;;;
2020/10/07 07:28:55;;;;;;;0.7;0.4;;;;;;;12.43;77.33789;935.3692;;;;
2020/10/07 07:31:20;;;;;;;0.9;0.4;;;;;;;12.45;78.10938;935.4434;;;;
2020/10/07 07:33:47;;;;;;;0.3;0.2;;;;;;;12.53;76.9541;935.3817;;;;
2020/10/07 07:36:13;;;;;;;1.2;0.3;;;;;;;12.62;77.40625;935.4256;;;;
2020/10/07 07:38:39;;;;;;;2.1;0.4;;;;;;;12.71;77.89258;935.415;;;;
2020/10/07 07:41:04;;;;;;;0.2;0.1;;;;;;;12.58;77.05371;935.3433;;;;
2020/10/07 07:43:31;;;;;;;0.6;0.4;;;;;;;12.67;76.875;935.3767;;;;
2020/10/07 07:45:55;;;;;;;0.3;0.3;;;;;;;12.82;76.85742;935.3685;;;;
2020/10/07 07:48:20;;;;;;;0.3;0.3;;;;;;;12.76;73.18555;935.2902;;;;
2020/10/07 07:50:45;;;;;;;0.6;0.4;;;;;;;13;74.14355;935.3438;;;;
2020/10/07 07:53:10;;;;;;;0.7;0.5;;;;;;;13.51;71.73633;935.3197;;;;
2020/10/07 07:55:35;;;;;;;4;0.7;;;;;;;13.86;72.08105;935.3794;;;;
2020/10/07 07:58:00;;;;;;;0.3;0.3;;;;;;;14.04;69.28027;935.3405;;;;
2020/10/07 08:00:29;;;;;;;0.2;0.2;;;;;;;14.86;64.64648;935.3632;;;;
2020/10/07 08:02:56;;;;;;;0.1;0.1;;;;;;;15.06;66.35059;935.2737;;;;
2020/10/07 08:05:22;;;;;;;2.2;0.4;;;;;;;14.43;63.35156;935.3535;;;;
2020/10/07 08:07:47;;;;;;;0.1;0.1;;;;;;;14.78;66.78125;935.3936;;;;
2020/10/07 08:10:14;;;;;;;0.5;0.3;;;;;;;14.73;66.94531;935.4928;;;;
2020/10/07 08:12:39;;;;;;;0.6;0.4;;;;;;;14.57;65.9873;935.4966;;;;
2020/10/07 08:15:04;;;;;;;7.2;0.4;;;;;;;14.29;67.31543;935.5452;;;;
2020/10/07 08:17:31;;;;;;;0.9;0.6;;;;;;;14.13;69.44336;935.6448;;;;
2020/10/07 08:19:56;;;;;;;3;1.2;;;;;;;13.97;71.9043;935.761;;;;
2020/10/07 08:22:21;;;;;;;1.3;0.6;;;;;;;13.47;71.75195;935.6806;;;;
2020/10/07 08:24:46;;;;;;;0.3;0.3;;;;;;;13.35;72.59473;935.7762;;;;
2020/10/07 08:27:12;;;;;;;3.2;0.4;;;;;;;13.22;74.20508;935.8505;;;;
2020/10/07 08:29:37;;;;;;;0.3;0.3;;;;;;;13.19;72.3623;935.7863;;;;
2020/10/07 08:32:05;;;;;;;0.3;0.2;;;;;;;13.3;70.79297;935.8557;;;;
2020/10/07 08:34:30;;;;;;;1.1;0.7;;;;;;;13.29;70.22852;935.8973;;;;
2020/10/07 08:36:55;;;;;;;1;0.5;;;;;;;13.31;72.83984;935.8708;;;;
2020/10/07 08:39:25;;;;;;;0.6;0.4;;;;;;;13.33;75.08496;935.9275;;;;
2020/10/07 08:41:45;;;;;;;3.3;0.8;;;;;;;13.21;76.52246;935.9453;;;;
2020/10/07 08:44:11;;;;;;;0.6;0.4;;;;;;;13.48;74.94922;935.9158;;;;
2020/10/07 08:46:37;;;;;;;0.4;0.4;;;;;;;13.7;73.50293;935.9076;;;;
2020/10/07 08:49:03;;;;;;;1.3;0.5;;;;;;;13.9;72.36426;935.9305;;;;
2020/10/07 08:51:28;;;;;;;0.8;0.4;;;;;;;14.07;72.34473;936.0024;;;;
2020/10/07 08:53:55;;;;;;;0.4;0.3;;;;;;;14.19;70.84668;935.9838;;;;
2020/10/07 08:56:20;;;;;;;0.8;0.3;;;;;;;14.08;71.41602;936.0134;;;;
2020/10/07 08:58:45;;;;;;;0.8;0.3;;;;;;;13.56;70.50195;936.0153;;;;
2020/10/07 09:01:11;;;;;;;0.4;0.2;;;;;;;13.31;68.86523;936.0316;;;;
2020/10/07 09:03:36;;;;;;;1.9;0.1;;;;;;;12.97;65.82617;936.0392;;;;
2020/10/07 09:06:03;;;;;;;0.1;0.1;;;;;;;12.9;66.85938;936.0427;;;;
2020/10/07 09:08:28;;;;;;;0.8;0.1;;;;;;;12.66;67.85449;936.0989;;;;
2020/10/07 09:10:54;;;;;;;0.4;0.1;;;;;;;12.76;65.47168;936.0867;;;;
2020/10/07 09:13:18;;;;;;;0;0;;;;;;;12.43;66.67383;935.9386;;;;
2020/10/07 09:15:43;;;;;;;0.5;0.1;;;;;;;12.37;70.10254;935.9639;;;;
2020/10/07 09:18:09;;;;;;;0.9;0;;;;;;;12.43;65.49316;936.02;;;;
2020/10/07 09:20:38;;;;;;;0.2;0.2;;;;;;;12.64;65.87891;936.0406;;;;
2020/10/07 09:23:03;;;;;;;0;0;;;;;;;12.46;65.99023;936.0686;;;;
2020/10/07 09:25:31;;;;;;;0.2;0.1;;;;;;;12.33;66.31348;935.9871;;;;
2020/10/07 09:27:56;;;;;;;0;0;;;;;;;12.43;66.04297;936.0136;;;;
2020/10/07 09:30:28;;;;;;;0.1;0.1;;;;;;;12.41;70.14453;936.1443;;;;
2020/10/07 09:32:53;;;;;;;0.2;0.1;;;;;;;12.57;72.07324;936.1923;;;;
2020/10/07 09:35:19;;;;;;;0.1;0.1;;;;;;;12.85;73.68262;936.2274;;;;
2020/10/07 09:37:44;;;;;;;0.7;0.3;;;;;;;13.17;74.51758;936.2098;;;;
2020/10/07 09:40:16;;;;;;;0.2;0.2;;;;;;;13.26;71.28125;936.1517;;;;
2020/10/07 09:42:41;;;;;;;0.7;0.3;;;;;;;13.15;75.12109;936.3098;;;;
2020/10/07 09:45:06;;;;;;;0.1;0.1;;;;;;;12.81;67.10938;936.2313;;;;
2020/10/07 09:47:32;;;;;;;0.1;0.1;;;;;;;12.74;70.85254;936.2953;;;;
2020/10/07 09:49:57;;;;;;;0.1;0.1;;;;;;;12.96;69.37109;936.3237;;;;
2020/10/07 09:52:24;;;;;;;0;0;;;;;;;12.87;66.17773;936.3441;;;;
2020/10/07 09:54:49;;;;;;;0.5;0.1;;;;;;;12.97;68.9375;936.4156;;;;
2020/10/07 09:57:16;;;;;;;0.3;0;;;;;;;12.99;67.01172;936.3979;;;;
2020/10/07 09:59:41;;;;;;;0.3;0.2;;;;;;;13;65.10742;936.3212;;;;
2020/10/07 10:02:06;;;;;;;0.1;0;;;;;;;12.87;64.61719;936.3736;;;;
2020/10/07 10:04:34;;;;;;;1;0.3;;;;;;;12.97;69.52344;936.3301;;;;
2020/10/07 10:06:59;;;;;;;0.1;0.1;;;;;;;12.87;71.56152;936.3049;;;;
2020/10/07 10:09:28;;;;;;;0;0;;;;;;;12.83;63.61133;936.3002;;;;
2020/10/07 10:11:53;;;;;;;0;0;;;;;;;12.94;65.71875;936.4142;;;;
2020/10/07 10:14:19;;;;;;;0.6;0.3;;;;;;;12.79;73.95898;936.4166;;;;
2020/10/07 10:16:44;;;;;;;0.1;0.1;;;;;;;12.79;71.02051;936.3959;;;;
2020/10/07 10:19:14;;;;;;;0.1;0.1;;;;;;;12.78;67.41504;936.4686;;;;
2020/10/07 10:21:41;;;;;;;0.2;0.2;;;;;;;12.9;66.2168;936.4942;;;;
2020/10/07 10:24:06;;;;;;;1.9;0.6;;;;;;;13.17;69.2207;936.5001;;;;
2020/10/07 10:26:32;;;;;;;0.3;0.3;;;;;;;13.24;65.91113;936.5436;;;;
2020/10/07 10:28:57;;;;;;;0.7;0.3;;;;;;;13.25;66.51172;936.4196;;;;
2020/10/07 10:31:23;;;;;;;0.1;0.1;;;;;;;13.27;60.87305;936.4691;;;;
2020/10/07 10:33:49;;;;;;;0.4;0.2;;;;;;;13.31;60.58008;936.4905;;;;
2020/10/07 10:36:14;;;;;;;0.7;0.6;;;;;;;13.48;61.58008;936.4445;;;;
2020/10/07 10:38:39;;;;;;;1.9;0.3;;;;;;;13.52;62.12598;936.4731;;;;
2020/10/07 10:41:06;;;;;;;0.4;0.3;;;;;;;13.69;61.41504;936.4877;;;;
2020/10/07 10:43:31;;;;;;;1.2;0.3;;;;;;;13.82;62.41113;936.4874;;;;
2020/10/07 10:45:58;;;;;;;0.1;0.1;;;;;;;14.38;64.26465;936.4839;;;;
2020/10/07 10:48:23;;;;;;;0.8;0.5;;;;;;;14.55;68.60156;936.5488;;;;
2020/10/07 10:50:49;;;;;;;1.9;0.6;;;;;;;14.75;66.37207;936.5681;;;;
2020/10/07 10:53:15;;;;;;;0.2;0.1;;;;;;;14.42;57.44043;936.4824;;;;
2020/10/07 10:55:43;;;;;;;0.3;0.2;;;;;;;14.28;64.35449;936.5167;;;;
2020/10/07 10:58:08;;;;;;;0.3;0.1;;;;;;;14.35;59.9873;936.4562;;;;
2020/10/07 11:00:33;;;;;;;0.1;0.1;;;;;;;14.08;55.60938;936.5003;;;;
2020/10/07 11:02:59;;;;;;;0;0;;;;;;;13.97;54.07813;936.4879;;;;
2020/10/07 11:05:24;;;;;;;1.8;0.2;;;;;;;14.17;58.73047;936.5053;;;;
2020/10/07 11:07:50;;;;;;;1.4;0.1;;;;;;;14.11;57.23633;936.5305;;;;
2020/10/07 11:10:14;;;;;;;1.1;0.2;;;;;;;14.06;57.67871;936.47;;;;
2020/10/07 11:12:42;;;;;;;0.4;0.1;;;;;;;14;56.58984;936.563;;;;
2020/10/07 11:15:07;;;;;;;0.5;0.4;;;;;;;14.17;58.31641;936.5309;;;;
2020/10/07 11:17:37;;;;;;;0.2;0.1;;;;;;;14.22;55.25977;936.6142;;;;
2020/10/07 11:20:16;;;;;;;0.2;0.2;;;;;;;14.04;57.63184;936.5798;;;;
2020/10/07 11:22:41;;;;;;;0;0;;;;;;;14.03;54.95801;936.5808;;;;
2020/10/07 11:25:16;;;;;;;0.1;0.1;;;;;;;14.06;53.61719;936.6445;;;;
2020/10/07 11:27:42;;;;;;;4.9;0.2;;;;;;;14.11;53.8291;936.5369;;;;
2020/10/07 11:30:07;;;;;;;0.6;0.3;;;;;;;14.23;55.45605;936.5492;;;;
2020/10/07 11:32:33;;;;;;;0.1;0;;;;;;;14.21;53.48438;936.6443;;;;
2020/10/07 11:34:58;;;;;;;0;0;;;;;;;13.99;53.29785;936.6775;;;;
2020/10/07 11:37:25;;;;;;;0;0;;;;;;;13.81;54.9541;936.6967;;;;
2020/10/07 11:39:51;;;;;;;0.1;0.1;;;;;;;13.85;55.09766;936.7151;;;;
2020/10/07 11:42:17;;;;;;;0.6;0;;;;;;;13.81;54.66699;936.7;;;;
2020/10/07 11:44:41;;;;;;;0;0;;;;;;;13.73;54.21973;936.7723;;;;
2020/10/07 11:47:08;;;;;;;0;0;;;;;;;13.63;54.44824;936.7545;;;;
2020/10/07 11:49:32;;;;;;;0;0;;;;;;;13.63;55.93164;936.7497;;;;
2020/10/07 11:51:57;;;;;;;0;0;;;;;;;13.67;54.31543;936.7479;;;;
2020/10/07 11:54:22;;;;;;;0.4;0;;;;;;;13.75;58.18945;936.6603;;;;
2020/10/07 11:56:48;;;;;;;0.1;0.1;;;;;;;13.83;56.09766;936.7634;;;;
2020/10/07 11:59:13;;;;;;;0.2;0.1;;;;;;;13.87;57.06738;936.7976;;;;
2020/10/07 12:01:49;;;;;;;0;0;;;;;;;13.88;56.05762;936.7791;;;;
2020/10/07 12:04:20;;;;;;;0;0;;;;;;;13.98;56.08008;936.7561;;;;
2020/10/07 12:06:45;;;;;;;0.2;0.1;;;;;;;13.8;54.9082;936.784;;;;
2020/10/07 12:09:13;;;;;;;0.1;0.1;;;;;;;13.77;55.43262;936.6658;;;;
2020/10/07 12:11:39;;;;;;;0;0;;;;;;;13.77;54.8457;936.6794;;;;
2020/10/07 12:14:04;;;;;;;0;0;;;;;;;14.02;56.0166;936.6448;;;;
2020/10/07 12:16:29;;;;;;;0.1;0.1;;;;;;;14.18;53.82617;936.5773;;;;
2020/10/07 12:18:54;;;;;;;0.2;0.1;;;;;;;14.48;54.94727;936.6039;;;;
2020/10/07 12:21:19;;;;;;;0;0;;;;;;;14.9;50.04004;936.5526;;;;
2020/10/07 12:23:46;;;;;;;0;0;;;;;;;16.14;47.68457;936.5481;;;;
2020/10/07 12:26:16;;;;;;;0.4;0.1;;;;;;;16.15;47.41992;936.5231;;;;
2020/10/07 12:28:40;;;;;;;0.5;0.1;;;;;;;17.31;45.95703;936.5407;;;;
2020/10/07 12:31:05;;;;;;;0;0;;;;;;;18.75;43.0127;936.5086;;;;
2020/10/07 12:33:36;;;;;;;0.2;0.1;;;;;;;20.57;39.58105;936.4358;;;;
2020/10/07 12:36:03;;;;;;;0.5;0.2;;;;;;;21;36.9873;936.3583;;;;
2020/10/07 12:38:28;;;;;;;0.1;0.1;;;;;;;21.01;35.54883;936.3688;;;;
2020/10/07 12:40:54;;;;;;;0.2;0.1;;;;;;;21.62;35.0957;936.2058;;;;
2020/10/07 12:43:19;;;;;;;0;0;;;;;;;22.15;35.60645;936.3248;;;;
2020/10/07 12:45:46;;;;;;;0;0;;;;;;;21.85;35.04297;936.3253;;;;
2020/10/07 12:48:11;;;;;;;0.1;0;;;;;;;22.81;33.92188;936.2728;;;;
2020/10/07 12:50:35;;;;;;;0.5;0.2;;;;;;;23.18;33.17383;936.3267;;;;
2020/10/07 12:53:01;;;;;;;0.2;0;;;;;;;20.95;35.39355;936.475;;;;
2020/10/07 12:55:26;;;;;;;0;0;;;;;;;19.18;38.25586;936.428;;;;
2020/10/07 12:57:51;;;;;;;0;0;;;;;;;17.88;41.17383;936.5297;;;;
2020/10/07 13:00:17;;;;;;;0.1;0;;;;;;;17.72;43.79297;936.5481;;;;
2020/10/07 13:02:45;;;;;;;0.2;0.1;;;;;;;18.54;42.49121;936.5598;;;;
2020/10/07 13:05:18;;;;;;;0;0;;;;;;;18.06;42.13281;936.6412;;;;
2020/10/07 13:07:45;;;;;;;0;0;;;;;;;17.79;45.11328;936.6456;;;;
2020/10/07 13:10:10;;;;;;;3.6;0.3;;;;;;;17.22;42.99121;936.7285;;;;
2020/10/07 13:12:36;;;;;;;0.4;0.2;;;;;;;16.46;44.36328;936.7327;;;;
2020/10/07 13:15:01;;;;;;;0;0;;;;;;;16.34;45.98242;936.7752;;;;
2020/10/07 13:17:26;;;;;;;0;0;;;;;;;16.35;48.30957;936.7808;;;;
2020/10/07 13:19:53;;;;;;;0;0;;;;;;;16.55;47.20898;936.8027;;;;
2020/10/07 13:22:18;;;;;;;0;0;;;;;;;16.58;47.03711;936.9358;;;;
2020/10/07 13:24:48;;;;;;;0;0;;;;;;;15.96;49.30664;936.9047;;;;
2020/10/07 13:27:13;;;;;;;0;0;;;;;;;15.8;48.44629;936.9401;;;;
2020/10/07 13:29:40;;;;;;;0;0;;;;;;;15.6;49.88965;937.041;;;;
2020/10/07 13:32:05;;;;;;;0;0;;;;;;;15.2;52.1416;937.2114;;;;
2020/10/07 13:34:30;;;;;;;0;0;;;;;;;15.02;52.85645;937.2124;;;;
2020/10/07 13:36:56;;;;;;;0;0;;;;;;;15.11;53.74609;937.2958;;;;
2020/10/07 13:39:21;;;;;;;0.1;0;;;;;;;15.03;52.62793;937.4922;;;;
2020/10/07 13:41:46;;;;;;;0.1;0.1;;;;;;;14.76;58.31445;937.4568;;;;
2020/10/07 13:44:11;;;;;;;0;0;;;;;;;14.55;56.44238;937.5624;;;;
2020/10/07 13:46:38;;;;;;;0;0;;;;;;;14.07;58.26758;937.6038;;;;
2020/10/07 13:49:03;;;;;;;0.1;0;;;;;;;13.94;57.77832;937.5937;;;;
2020/10/07 13:51:38;;;;;;;0.1;0;;;;;;;14;57.98242;937.5685;;;;
2020/10/07 13:54:06;;;;;;;0.1;0.1;;;;;;;13.7;58.68945;937.6544;;;;
2020/10/07 13:56:31;;;;;;;0;0;;;;;;;13.57;59.91406;937.5153;;;;
2020/10/07 13:58:58;;;;;;;0;0;;;;;;;13.92;61.44727;937.5641;;;;
2020/10/07 14:01:25;;;;;;;0;0;;;;;;;13.92;58.76563;937.5617;;;;
2020/10/07 14:03:50;;;;;;;0.2;0.1;;;;;;;14.06;59.68164;937.6878;;;;
2020/10/07 14:06:18;;;;;;;0.3;0;;;;;;;14.04;58.64355;937.6463;;;;
2020/10/07 14:08:43;;;;;;;0;0;;;;;;;14.02;56.73047;937.5663;;;;
2020/10/07 14:11:08;;;;;;;0;0;;;;;;;14.43;59.83789;937.6663;;;;
2020/10/07 14:13:35;;;;;;;0;0;;;;;;;14.76;57.40332;937.5692;;;;
2020/10/07 14:16:04;;;;;;;0;0;;;;;;;14.48;57.64355;937.704;;;;
2020/10/07 14:18:29;;;;;;;0.1;0;;;;;;;14.7;57.75293;937.6627;;;;
2020/10/07 14:20:57;;;;;;;0.1;0;;;;;;;14.99;55.64648;937.7079;;;;
2020/10/07 14:23:22;;;;;;;0;0;;;;;;;14.57;54.63574;937.8251;;;;
2020/10/07 14:25:48;;;;;;;0;0;;;;;;;14.89;55.26367;937.8066;;;;
2020/10/07 14:28:15;;;;;;;0;0;;;;;;;14.6;55.99902;937.7625;;;;
2020/10/07 14:30:50;;;;;;;0.6;0.3;;;;;;;14.85;57.39063;937.7692;;;;
2020/10/07 14:33:17;;;;;;;0;0;;;;;;;15.01;52.66113;937.8016;;;;
2020/10/07 14:35:42;;;;;;;0;0;;;;;;;14.8;52.80762;937.7748;;;;
2020/10/07 14:38:13;;;;;;;0.2;0.1;;;;;;;14.51;54.4209;937.8464;;;;
2020/10/07 14:40:35;;;;;;;0.2;0.1;;;;;;;14.85;54.34766;937.8358;;;;
2020/10/07 14:43:00;;;;;;;1.3;0.2;;;;;;;14.47;55.32617;937.8971;;;;
2020/10/07 14:45:27;;;;;;;0.5;0.5;;;;;;;14.21;55.39648;937.9617;;;;
2020/10/07 14:47:55;;;;;;;0.3;0.1;;;;;;;13.89;56.56348;938.0197;;;;
2020/10/07 14:50:20;;;;;;;0.1;0.1;;;;;;;14.1;55.53223;938.0328;;;;
2020/10/07 14:52:48;;;;;;;1.2;0.1;;;;;;;15.09;53.4209;937.9608;;;;
2020/10/07 14:55:13;;;;;;;0.1;0.1;;;;;;;15.57;50.36035;937.9191;;;;
2020/10/07 14:57:38;;;;;;;0.8;0.2;;;;;;;15.48;51.83887;937.9481;;;;
2020/10/07 15:00:18;;;;;;;6.7;0.5;;;;;;;15.08;51.33008;937.9313;;;;
2020/10/07 15:02:31;;;;;;;0;0;;;;;;;14.7;53.02637;938.0305;;;;
2020/10/07 15:04:56;;;;;;;0.6;0.2;;;;;;;14.66;54.98145;938.1013;;;;
2020/10/07 15:07:23;;;;;;;1.4;0.2;;;;;;;14.65;56.84668;938.0084;;;;
2020/10/07 15:09:48;;;;;;;0;0;;;;;;;14.34;53.98438;938.0598;;;;
2020/10/07 15:12:13;;;;;;;0.1;0.1;;;;;;;14.01;53.9209;938.144;;;;
2020/10/07 15:14:38;;;;;;;0.3;0.1;;;;;;;13.85;54.22363;938.1167;;;;
2020/10/07 15:17:03;;;;;;;0.1;0;;;;;;;13.4;56.01758;938.2722;;;;
2020/10/07 15:19:29;;;;;;;0;0;;;;;;;13.33;58.39941;938.421;;;;
2020/10/07 15:21:56;;;;;;;0.6;0.2;;;;;;;13.23;58.92578;938.4707;;;;
2020/10/07 15:24:21;;;;;;;0.1;0.1;;;;;;;13.01;59.52734;938.5865;;;;
2020/10/07 15:26:48;;;;;;;0.4;0.2;;;;;;;12.84;62.08789;938.6487;;;;
2020/10/07 15:29:13;;;;;;;0;0;;;;;;;12.73;62.98926;938.7681;;;;
2020/10/07 15:31:38;;;;;;;0.1;0.1;;;;;;;12.59;64.9541;938.8329;;;;
2020/10/07 15:34:05;;;;;;;0;0;;;;;;;12.39;68.13477;938.9056;;;;
2020/10/07 15:36:30;;;;;;;0.4;0.2;;;;;;;12.29;70.91504;938.9436;;;;
2020/10/07 15:38:55;;;;;;;0.2;0.2;;;;;;;12.35;70.87988;938.9501;;;;
2020/10/07 15:41:22;;;;;;;0;0;;;;;;;12.34;67.91992;938.9437;;;;